sensor_id;sensor_type;location;lat;lon;timestamp;P1;durP1;ratioP1;P2;durP2;ratioP2
37777;SDS011;23615;51.506;7.678;2023-05-07T00:00:58;0.67;;;0.67;;
37777;SDS011;23615;51.506;7.678;2023-05-07T00:03:24;0.80;;;0.80;;
37777;SDS011;23615;51.506;7.678;2023-05-07T00:05:51;0.75;;;0.65;;
37777;SDS011;23615;51.506;7.678;2023-05-07T00:08:17;0.70;;;0.70;;
37777;SDS011;23615;51.506;7.678;2023-05-07T00:10:43;0.80;;;0.80;;
37777;SDS011;23615;51.506;7.678;2023-05-07T00:13:08;0.80;;;0.77;;
37777;SDS011;23615;51.506;7.678;2023-05-07T00:15:33;0.93;;;0.80;;
37777;SDS011;23615;51.506;7.678;2023-05-07T00:17:59;2.63;;;1.30;;
37777;SDS011;23615;51.506;7.678;2023-05-07T00:20:24;1.67;;;1.50;;
37777;SDS011;23615;51.506;7.678;2023-05-07T00:22:50;1.40;;;1.30;;
37777;SDS011;23615;51.506;7.678;2023-05-07T00:25:15;1.65;;;1.55;;
37777;SDS011;23615;51.506;7.678;2023-05-07T00:27:40;1.67;;;1.53;;
37777;SDS011;23615;51.506;7.678;2023-05-07T00:30:06;0.97;;;0.90;;
37777;SDS011;23615;51.506;7.678;2023-05-07T00:32:32;1.38;;;1.10;;
37777;SDS011;23615;51.506;7.678;2023-05-07T00:34:57;1.30;;;1.20;;
37777;SDS011;23615;51.506;7.678;2023-05-07T00:37:22;1.13;;;1.03;;
37777;SDS011;23615;51.506;7.678;2023-05-07T00:39:47;1.67;;;0.80;;
37777;SDS011;23615;51.506;7.678;2023-05-07T00:42:13;1.70;;;0.90;;
37777;SDS011;23615;51.506;7.678;2023-05-07T00:44:39;0.50;;;0.50;;
37777;SDS011;23615;51.506;7.678;2023-05-07T00:47:05;0.90;;;0.80;;
37777;SDS011;23615;51.506;7.678;2023-05-07T00:49:41;1.00;;;0.83;;
37777;SDS011;23615;51.506;7.678;2023-05-07T00:52:09;1.23;;;0.57;;
37777;SDS011;23615;51.506;7.678;2023-05-07T00:54:37;0.80;;;0.60;;
37777;SDS011;23615;51.506;7.678;2023-05-07T00:57:05;1.00;;;0.57;;
37777;SDS011;23615;51.506;7.678;2023-05-07T00:59:31;0.98;;;0.80;;
37777;SDS011;23615;51.506;7.678;2023-05-07T01:01:57;1.98;;;0.80;;
37777;SDS011;23615;51.506;7.678;2023-05-07T01:04:22;0.60;;;0.60;;
37777;SDS011;23615;51.506;7.678;2023-05-07T01:06:47;0.93;;;0.80;;
37777;SDS011;23615;51.506;7.678;2023-05-07T01:09:14;1.10;;;0.77;;
37777;SDS011;23615;51.506;7.678;2023-05-07T01:11:39;0.60;;;0.60;;
37777;SDS011;23615;51.506;7.678;2023-05-07T01:14:05;0.70;;;0.70;;
37777;SDS011;23615;51.506;7.678;2023-05-07T01:16:32;0.90;;;0.70;;
37777;SDS011;23615;51.506;7.678;2023-05-07T01:18:57;0.63;;;0.50;;
37777;SDS011;23615;51.506;7.678;2023-05-07T01:21:24;0.80;;;0.70;;
37777;SDS011;23615;51.506;7.678;2023-05-07T01:23:51;0.80;;;0.80;;
37777;SDS011;23615;51.506;7.678;2023-05-07T01:26:17;0.47;;;0.47;;
37777;SDS011;23615;51.506;7.678;2023-05-07T01:28:44;0.80;;;0.73;;
37777;SDS011;23615;51.506;7.678;2023-05-07T01:31:10;0.80;;;0.77;;
37777;SDS011;23615;51.506;7.678;2023-05-07T01:33:38;0.52;;;0.52;;
37777;SDS011;23615;51.506;7.678;2023-05-07T01:36:06;0.70;;;0.70;;
37777;SDS011;23615;51.506;7.678;2023-05-07T01:38:33;0.80;;;0.80;;
37777;SDS011;23615;51.506;7.678;2023-05-07T01:41:00;1.55;;;0.80;;
37777;SDS011;23615;51.506;7.678;2023-05-07T01:43:26;1.45;;;0.80;;
37777;SDS011;23615;51.506;7.678;2023-05-07T01:45:52;0.60;;;0.60;;
37777;SDS011;23615;51.506;7.678;2023-05-07T01:48:17;0.80;;;0.80;;
37777;SDS011;23615;51.506;7.678;2023-05-07T01:50:43;0.77;;;0.70;;
37777;SDS011;23615;51.506;7.678;2023-05-07T01:53:09;1.10;;;0.60;;
37777;SDS011;23615;51.506;7.678;2023-05-07T01:55:34;0.70;;;0.70;;
37777;SDS011;23615;51.506;7.678;2023-05-07T01:58:01;0.77;;;0.50;;
37777;SDS011;23615;51.506;7.678;2023-05-07T02:00:27;1.10;;;0.70;;
37777;SDS011;23615;51.506;7.678;2023-05-07T02:02:52;0.60;;;0.60;;
37777;SDS011;23615;51.506;7.678;2023-05-07T02:05:18;0.60;;;0.50;;
37777;SDS011;23615;51.506;7.678;2023-05-07T02:07:43;0.70;;;0.40;;
37777;SDS011;23615;51.506;7.678;2023-05-07T02:10:09;0.85;;;0.70;;
37777;SDS011;23615;51.506;7.678;2023-05-07T02:12:34;1.17;;;0.43;;
37777;SDS011;23615;51.506;7.678;2023-05-07T02:15:00;0.70;;;0.70;;
37777;SDS011;23615;51.506;7.678;2023-05-07T02:17:25;0.60;;;0.60;;
37777;SDS011;23615;51.506;7.678;2023-05-07T02:19:50;0.93;;;0.47;;
37777;SDS011;23615;51.506;7.678;2023-05-07T02:22:16;0.50;;;0.50;;
37777;SDS011;23615;51.506;7.678;2023-05-07T02:24:41;3.30;;;0.70;;
37777;SDS011;23615;51.506;7.678;2023-05-07T02:27:06;0.50;;;0.50;;
37777;SDS011;23615;51.506;7.678;2023-05-07T02:29:32;0.50;;;0.50;;
37777;SDS011;23615;51.506;7.678;2023-05-07T02:31:57;0.83;;;0.70;;
37777;SDS011;23615;51.506;7.678;2023-05-07T02:34:22;0.77;;;0.70;;
37777;SDS011;23615;51.506;7.678;2023-05-07T02:36:48;1.27;;;0.60;;
37777;SDS011;23615;51.506;7.678;2023-05-07T02:39:13;0.60;;;0.60;;
37777;SDS011;23615;51.506;7.678;2023-05-07T02:41:39;0.70;;;0.65;;
37777;SDS011;23615;51.506;7.678;2023-05-07T02:44:04;1.25;;;0.80;;
37777;SDS011;23615;51.506;7.678;2023-05-07T02:46:30;0.82;;;0.70;;
37777;SDS011;23615;51.506;7.678;2023-05-07T02:48:55;0.70;;;0.70;;
37777;SDS011;23615;51.506;7.678;2023-05-07T02:51:21;1.00;;;1.00;;
37777;SDS011;23615;51.506;7.678;2023-05-07T02:53:47;0.93;;;0.88;;
37777;SDS011;23615;51.506;7.678;2023-05-07T02:56:13;1.08;;;0.93;;
37777;SDS011;23615;51.506;7.678;2023-05-07T02:58:38;0.97;;;0.90;;
37777;SDS011;23615;51.506;7.678;2023-05-07T03:01:09;1.10;;;1.00;;
37777;SDS011;23615;51.506;7.678;2023-05-07T03:03:35;1.20;;;0.93;;
37777;SDS011;23615;51.506;7.678;2023-05-07T03:06:00;1.30;;;1.20;;
37777;SDS011;23615;51.506;7.678;2023-05-07T03:08:26;1.00;;;1.00;;
37777;SDS011;23615;51.506;7.678;2023-05-07T03:10:51;0.93;;;0.93;;
37777;SDS011;23615;51.506;7.678;2023-05-07T03:13:17;1.43;;;1.10;;
37777;SDS011;23615;51.506;7.678;2023-05-07T03:15:42;1.13;;;1.03;;
37777;SDS011;23615;51.506;7.678;2023-05-07T03:18:08;0.80;;;0.80;;
37777;SDS011;23615;51.506;7.678;2023-05-07T03:20:33;1.13;;;1.13;;
37777;SDS011;23615;51.506;7.678;2023-05-07T03:22:59;0.70;;;0.70;;
37777;SDS011;23615;51.506;7.678;2023-05-07T03:25:24;1.27;;;1.20;;
37777;SDS011;23615;51.506;7.678;2023-05-07T03:27:50;1.30;;;1.20;;
37777;SDS011;23615;51.506;7.678;2023-05-07T03:30:15;1.30;;;1.20;;
37777;SDS011;23615;51.506;7.678;2023-05-07T03:32:40;1.60;;;1.30;;
37777;SDS011;23615;51.506;7.678;2023-05-07T03:35:06;1.20;;;1.20;;
37777;SDS011;23615;51.506;7.678;2023-05-07T03:37:32;0.82;;;0.82;;
37777;SDS011;23615;51.506;7.678;2023-05-07T03:39:57;1.40;;;1.30;;
37777;SDS011;23615;51.506;7.678;2023-05-07T03:42:22;0.90;;;0.90;;
37777;SDS011;23615;51.506;7.678;2023-05-07T03:44:48;0.83;;;0.80;;
37777;SDS011;23615;51.506;7.678;2023-05-07T03:47:13;1.00;;;0.90;;
37777;SDS011;23615;51.506;7.678;2023-05-07T03:49:39;1.03;;;0.93;;
37777;SDS011;23615;51.506;7.678;2023-05-07T03:52:05;1.10;;;1.00;;
37777;SDS011;23615;51.506;7.678;2023-05-07T03:54:30;0.80;;;0.80;;
37777;SDS011;23615;51.506;7.678;2023-05-07T03:56:55;0.90;;;0.90;;
37777;SDS011;23615;51.506;7.678;2023-05-07T03:59:21;1.30;;;0.70;;
37777;SDS011;23615;51.506;7.678;2023-05-07T04:01:46;1.00;;;0.90;;
37777;SDS011;23615;51.506;7.678;2023-05-07T04:04:12;0.83;;;0.83;;
37777;SDS011;23615;51.506;7.678;2023-05-07T04:06:37;0.73;;;0.73;;
37777;SDS011;23615;51.506;7.678;2023-05-07T04:09:02;1.10;;;1.10;;
37777;SDS011;23615;51.506;7.678;2023-05-07T04:11:28;1.00;;;0.90;;
37777;SDS011;23615;51.506;7.678;2023-05-07T04:13:53;1.45;;;1.35;;
37777;SDS011;23615;51.506;7.678;2023-05-07T04:16:18;1.40;;;1.30;;
37777;SDS011;23615;51.506;7.678;2023-05-07T04:18:44;1.60;;;1.50;;
37777;SDS011;23615;51.506;7.678;2023-05-07T04:21:16;1.43;;;1.30;;
37777;SDS011;23615;51.506;7.678;2023-05-07T04:23:42;1.17;;;1.08;;
37777;SDS011;23615;51.506;7.678;2023-05-07T04:26:08;1.47;;;1.37;;
37777;SDS011;23615;51.506;7.678;2023-05-07T04:28:33;1.50;;;1.40;;
37777;SDS011;23615;51.506;7.678;2023-05-07T04:30:59;1.10;;;1.00;;
37777;SDS011;23615;51.506;7.678;2023-05-07T04:33:24;1.30;;;1.20;;
37777;SDS011;23615;51.506;7.678;2023-05-07T04:35:50;1.23;;;1.13;;
37777;SDS011;23615;51.506;7.678;2023-05-07T04:38:15;1.80;;;1.70;;
37777;SDS011;23615;51.506;7.678;2023-05-07T04:40:41;1.38;;;1.27;;
37777;SDS011;23615;51.506;7.678;2023-05-07T04:43:07;2.17;;;1.73;;
37777;SDS011;23615;51.506;7.678;2023-05-07T04:45:34;2.33;;;2.13;;
37777;SDS011;23615;51.506;7.678;2023-05-07T04:48:00;1.80;;;1.70;;
37777;SDS011;23615;51.506;7.678;2023-05-07T04:50:25;1.70;;;1.60;;
37777;SDS011;23615;51.506;7.678;2023-05-07T04:52:51;1.77;;;1.53;;
37777;SDS011;23615;51.506;7.678;2023-05-07T04:55:16;1.90;;;1.40;;
37777;SDS011;23615;51.506;7.678;2023-05-07T04:57:42;1.57;;;1.47;;
37777;SDS011;23615;51.506;7.678;2023-05-07T05:00:07;1.43;;;1.33;;
37777;SDS011;23615;51.506;7.678;2023-05-07T05:02:33;2.60;;;1.58;;
37777;SDS011;23615;51.506;7.678;2023-05-07T05:04:59;1.42;;;1.33;;
37777;SDS011;23615;51.506;7.678;2023-05-07T05:07:26;1.30;;;0.98;;
37777;SDS011;23615;51.506;7.678;2023-05-07T05:09:51;1.40;;;1.30;;
37777;SDS011;23615;51.506;7.678;2023-05-07T05:12:16;1.70;;;1.60;;
37777;SDS011;23615;51.506;7.678;2023-05-07T05:14:42;1.90;;;1.50;;
37777;SDS011;23615;51.506;7.678;2023-05-07T05:17:07;1.67;;;1.50;;
37777;SDS011;23615;51.506;7.678;2023-05-07T05:19:33;2.20;;;2.00;;
37777;SDS011;23615;51.506;7.678;2023-05-07T05:21:58;1.80;;;1.70;;
37777;SDS011;23615;51.506;7.678;2023-05-07T05:24:25;1.40;;;1.30;;
37777;SDS011;23615;51.506;7.678;2023-05-07T05:26:52;1.70;;;1.60;;
37777;SDS011;23615;51.506;7.678;2023-05-07T05:29:18;1.43;;;1.33;;
37777;SDS011;23615;51.506;7.678;2023-05-07T05:31:43;2.13;;;1.80;;
37777;SDS011;23615;51.506;7.678;2023-05-07T05:34:08;1.30;;;1.23;;
37777;SDS011;23615;51.506;7.678;2023-05-07T05:36:34;1.20;;;1.20;;
37777;SDS011;23615;51.506;7.678;2023-05-07T05:38:59;1.53;;;1.43;;
37777;SDS011;23615;51.506;7.678;2023-05-07T05:41:24;1.80;;;1.70;;
37777;SDS011;23615;51.506;7.678;2023-05-07T05:43:50;1.57;;;1.37;;
37777;SDS011;23615;51.506;7.678;2023-05-07T05:46:15;2.13;;;1.67;;
37777;SDS011;23615;51.506;7.678;2023-05-07T05:48:41;2.40;;;2.10;;
37777;SDS011;23615;51.506;7.678;2023-05-07T05:51:06;1.93;;;1.83;;
37777;SDS011;23615;51.506;7.678;2023-05-07T05:53:31;1.83;;;1.73;;
37777;SDS011;23615;51.506;7.678;2023-05-07T05:55:57;1.80;;;1.70;;
37777;SDS011;23615;51.506;7.678;2023-05-07T05:58:22;1.70;;;1.60;;
37777;SDS011;23615;51.506;7.678;2023-05-07T06:00:47;1.40;;;1.30;;
37777;SDS011;23615;51.506;7.678;2023-05-07T06:03:13;1.70;;;1.60;;
37777;SDS011;23615;51.506;7.678;2023-05-07T06:05:38;1.77;;;1.53;;
37777;SDS011;23615;51.506;7.678;2023-05-07T06:08:04;2.00;;;1.90;;
37777;SDS011;23615;51.506;7.678;2023-05-07T06:10:29;1.40;;;1.30;;
37777;SDS011;23615;51.506;7.678;2023-05-07T06:12:58;2.00;;;1.75;;
37777;SDS011;23615;51.506;7.678;2023-05-07T06:15:23;1.70;;;1.60;;
37777;SDS011;23615;51.506;7.678;2023-05-07T06:17:48;1.53;;;1.43;;
37777;SDS011;23615;51.506;7.678;2023-05-07T06:20:14;2.30;;;2.10;;
37777;SDS011;23615;51.506;7.678;2023-05-07T06:22:39;1.90;;;1.80;;
37777;SDS011;23615;51.506;7.678;2023-05-07T06:25:05;1.23;;;1.13;;
37777;SDS011;23615;51.506;7.678;2023-05-07T06:27:30;1.57;;;1.47;;
37777;SDS011;23615;51.506;7.678;2023-05-07T06:29:55;1.77;;;1.67;;
37777;SDS011;23615;51.506;7.678;2023-05-07T06:32:21;2.03;;;1.60;;
37777;SDS011;23615;51.506;7.678;2023-05-07T06:34:46;1.67;;;1.58;;
37777;SDS011;23615;51.506;7.678;2023-05-07T06:37:11;2.13;;;1.80;;
37777;SDS011;23615;51.506;7.678;2023-05-07T06:39:37;2.23;;;2.03;;
37777;SDS011;23615;51.506;7.678;2023-05-07T06:42:02;2.30;;;1.90;;
37777;SDS011;23615;51.506;7.678;2023-05-07T06:44:29;1.80;;;1.58;;
37777;SDS011;23615;51.506;7.678;2023-05-07T06:46:54;1.83;;;1.70;;
37777;SDS011;23615;51.506;7.678;2023-05-07T06:49:20;1.70;;;1.60;;
37777;SDS011;23615;51.506;7.678;2023-05-07T06:51:45;3.30;;;3.10;;
37777;SDS011;23615;51.506;7.678;2023-05-07T06:54:10;3.43;;;3.13;;
37777;SDS011;23615;51.506;7.678;2023-05-07T06:56:36;2.50;;;2.30;;
37777;SDS011;23615;51.506;7.678;2023-05-07T06:59:01;3.53;;;3.30;;
37777;SDS011;23615;51.506;7.678;2023-05-07T07:01:28;2.63;;;2.42;;
37777;SDS011;23615;51.506;7.678;2023-05-07T07:03:53;2.50;;;2.30;;
37777;SDS011;23615;51.506;7.678;2023-05-07T07:06:19;2.53;;;2.40;;
37777;SDS011;23615;51.506;7.678;2023-05-07T07:08:44;2.80;;;2.45;;
37777;SDS011;23615;51.506;7.678;2023-05-07T07:11:10;2.27;;;2.07;;
37777;SDS011;23615;51.506;7.678;2023-05-07T07:13:35;2.10;;;2.00;;
37777;SDS011;23615;51.506;7.678;2023-05-07T07:16:01;2.65;;;2.45;;
37777;SDS011;23615;51.506;7.678;2023-05-07T07:18:27;3.17;;;2.97;;
37777;SDS011;23615;51.506;7.678;2023-05-07T07:20:52;3.10;;;2.90;;
37777;SDS011;23615;51.506;7.678;2023-05-07T07:23:17;4.33;;;3.77;;
37777;SDS011;23615;51.506;7.678;2023-05-07T07:25:43;4.33;;;3.40;;
37777;SDS011;23615;51.506;7.678;2023-05-07T07:28:08;2.87;;;2.67;;
37777;SDS011;23615;51.506;7.678;2023-05-07T07:30:34;3.37;;;3.07;;
37777;SDS011;23615;51.506;7.678;2023-05-07T07:32:59;3.58;;;3.28;;
37777;SDS011;23615;51.506;7.678;2023-05-07T07:35:34;4.18;;;3.88;;
37777;SDS011;23615;51.506;7.678;2023-05-07T07:37:59;5.43;;;4.93;;
37777;SDS011;23615;51.506;7.678;2023-05-07T07:40:25;4.83;;;4.30;;
37777;SDS011;23615;51.506;7.678;2023-05-07T07:42:51;3.55;;;3.28;;
37777;SDS011;23615;51.506;7.678;2023-05-07T07:45:16;4.78;;;4.38;;
37777;SDS011;23615;51.506;7.678;2023-05-07T07:47:42;4.80;;;4.40;;
37777;SDS011;23615;51.506;7.678;2023-05-07T07:50:07;4.83;;;4.43;;
37777;SDS011;23615;51.506;7.678;2023-05-07T07:52:34;4.63;;;4.30;;
37777;SDS011;23615;51.506;7.678;2023-05-07T07:54:59;5.38;;;4.88;;
37777;SDS011;23615;51.506;7.678;2023-05-07T07:57:25;6.78;;;6.15;;
37777;SDS011;23615;51.506;7.678;2023-05-07T07:59:50;6.87;;;6.27;;
37777;SDS011;23615;51.506;7.678;2023-05-07T08:02:16;5.60;;;5.10;;
37777;SDS011;23615;51.506;7.678;2023-05-07T08:04:41;6.88;;;6.28;;
37777;SDS011;23615;51.506;7.678;2023-05-07T08:07:08;9.57;;;8.30;;
37777;SDS011;23615;51.506;7.678;2023-05-07T08:09:34;8.80;;;7.90;;
37777;SDS011;23615;51.506;7.678;2023-05-07T08:11:59;7.78;;;7.05;;
37777;SDS011;23615;51.506;7.678;2023-05-07T08:14:26;7.57;;;6.87;;
37777;SDS011;23615;51.506;7.678;2023-05-07T08:16:53;7.57;;;6.85;;
37777;SDS011;23615;51.506;7.678;2023-05-07T08:19:18;10.48;;;9.48;;
37777;SDS011;23615;51.506;7.678;2023-05-07T08:21:44;8.23;;;7.43;;
37777;SDS011;23615;51.506;7.678;2023-05-07T08:24:10;9.90;;;9.00;;
37777;SDS011;23615;51.506;7.678;2023-05-07T08:26:35;9.43;;;8.43;;
37777;SDS011;23615;51.506;7.678;2023-05-07T08:29:01;8.05;;;7.30;;
37777;SDS011;23615;51.506;7.678;2023-05-07T08:31:26;6.93;;;6.27;;
37777;SDS011;23615;51.506;7.678;2023-05-07T08:33:51;7.77;;;7.07;;
37777;SDS011;23615;51.506;7.678;2023-05-07T08:36:17;10.20;;;9.20;;
37777;SDS011;23615;51.506;7.678;2023-05-07T08:38:44;10.97;;;9.90;;
37777;SDS011;23615;51.506;7.678;2023-05-07T08:41:10;9.80;;;8.90;;
37777;SDS011;23615;51.506;7.678;2023-05-07T08:43:36;9.87;;;8.97;;
37777;SDS011;23615;51.506;7.678;2023-05-07T08:46:05;10.90;;;9.90;;
37777;SDS011;23615;51.506;7.678;2023-05-07T08:48:33;10.07;;;8.60;;
37777;SDS011;23615;51.506;7.678;2023-05-07T08:50:58;9.77;;;8.87;;
37777;SDS011;23615;51.506;7.678;2023-05-07T08:53:24;10.15;;;9.25;;
37777;SDS011;23615;51.506;7.678;2023-05-07T08:55:50;9.00;;;8.13;;
37777;SDS011;23615;51.506;7.678;2023-05-07T08:58:16;12.68;;;10.65;;
37777;SDS011;23615;51.506;7.678;2023-05-07T09:00:41;10.30;;;9.03;;
37777;SDS011;23615;51.506;7.678;2023-05-07T09:03:07;10.63;;;9.70;;
37777;SDS011;23615;51.506;7.678;2023-05-07T09:05:32;7.47;;;6.77;;
37777;SDS011;23615;51.506;7.678;2023-05-07T09:08:02;10.27;;;9.30;;
37777;SDS011;23615;51.506;7.678;2023-05-07T09:10:29;9.27;;;8.48;;
37777;SDS011;23615;51.506;7.678;2023-05-07T09:12:54;8.05;;;7.35;;
37777;SDS011;23615;51.506;7.678;2023-05-07T09:15:20;8.03;;;7.33;;
37777;SDS011;23615;51.506;7.678;2023-05-07T09:17:45;11.70;;;10.67;;
37777;SDS011;23615;51.506;7.678;2023-05-07T09:20:10;11.43;;;10.40;;
37777;SDS011;23615;51.506;7.678;2023-05-07T09:22:36;9.45;;;8.60;;
37777;SDS011;23615;51.506;7.678;2023-05-07T09:25:02;11.93;;;10.77;;
37777;SDS011;23615;51.506;7.678;2023-05-07T09:27:28;9.13;;;8.23;;
37777;SDS011;23615;51.506;7.678;2023-05-07T09:29:55;9.18;;;8.38;;
37777;SDS011;23615;51.506;7.678;2023-05-07T09:32:20;11.17;;;10.07;;
37777;SDS011;23615;51.506;7.678;2023-05-07T09:34:45;11.23;;;10.07;;
37777;SDS011;23615;51.506;7.678;2023-05-07T09:37:12;9.60;;;8.70;;
37777;SDS011;23615;51.506;7.678;2023-05-07T09:39:39;11.30;;;10.30;;
37777;SDS011;23615;51.506;7.678;2023-05-07T09:42:11;9.77;;;8.77;;
37777;SDS011;23615;51.506;7.678;2023-05-07T09:44:37;12.88;;;11.68;;
37777;SDS011;23615;51.506;7.678;2023-05-07T09:47:06;10.70;;;9.70;;
37777;SDS011;23615;51.506;7.678;2023-05-07T09:49:36;9.93;;;9.00;;
37777;SDS011;23615;51.506;7.678;2023-05-07T09:52:05;11.68;;;10.55;;
37777;SDS011;23615;51.506;7.678;2023-05-07T09:54:33;10.30;;;9.30;;
37777;SDS011;23615;51.506;7.678;2023-05-07T09:57:00;10.88;;;9.27;;
37777;SDS011;23615;51.506;7.678;2023-05-07T09:59:28;10.10;;;9.10;;
37777;SDS011;23615;51.506;7.678;2023-05-07T10:01:56;10.88;;;9.80;;
37777;SDS011;23615;51.506;7.678;2023-05-07T10:04:24;10.67;;;9.67;;
37777;SDS011;23615;51.506;7.678;2023-05-07T10:06:51;12.93;;;11.73;;
37777;SDS011;23615;51.506;7.678;2023-05-07T10:09:16;11.37;;;10.27;;
37777;SDS011;23615;51.506;7.678;2023-05-07T10:11:43;12.82;;;11.63;;
37777;SDS011;23615;51.506;7.678;2023-05-07T10:14:08;12.52;;;11.27;;
37777;SDS011;23615;51.506;7.678;2023-05-07T10:16:36;10.43;;;9.43;;
37777;SDS011;23615;51.506;7.678;2023-05-07T10:19:02;10.02;;;9.02;;
37777;SDS011;23615;51.506;7.678;2023-05-07T10:21:29;13.13;;;11.77;;
37777;SDS011;23615;51.506;7.678;2023-05-07T10:23:58;10.70;;;9.60;;
37777;SDS011;23615;51.506;7.678;2023-05-07T10:26:25;10.87;;;9.80;;
37777;SDS011;23615;51.506;7.678;2023-05-07T10:28:55;11.98;;;10.82;;
37777;SDS011;23615;51.506;7.678;2023-05-07T10:34:15;10.20;;;9.23;;
37777;SDS011;23615;51.506;7.678;2023-05-07T10:36:45;10.40;;;9.40;;
37777;SDS011;23615;51.506;7.678;2023-05-07T10:39:11;8.60;;;7.80;;
37777;SDS011;23615;51.506;7.678;2023-05-07T10:41:37;8.32;;;7.57;;
37777;SDS011;23615;51.506;7.678;2023-05-07T10:44:03;11.63;;;10.07;;
37777;SDS011;23615;51.506;7.678;2023-05-07T10:46:29;9.23;;;8.33;;
37777;SDS011;23615;51.506;7.678;2023-05-07T10:51:27;9.35;;;8.45;;
37777;SDS011;23615;51.506;7.678;2023-05-07T10:56:36;9.38;;;8.48;;
37777;SDS011;23615;51.506;7.678;2023-05-07T11:04:27;10.48;;;9.48;;
37777;SDS011;23615;51.506;7.678;2023-05-07T11:10:06;7.13;;;6.53;;
37777;SDS011;23615;51.506;7.678;2023-05-07T11:15:00;10.07;;;9.07;;
37777;SDS011;23615;51.506;7.678;2023-05-07T11:17:29;8.60;;;7.80;;
37777;SDS011;23615;51.506;7.678;2023-05-07T11:19:56;10.20;;;9.17;;
37777;SDS011;23615;51.506;7.678;2023-05-07T11:24:59;8.50;;;7.68;;
37777;SDS011;23615;51.506;7.678;2023-05-07T11:27:25;9.50;;;8.50;;
37777;SDS011;23615;51.506;7.678;2023-05-07T11:29:51;7.30;;;6.63;;
37777;SDS011;23615;51.506;7.678;2023-05-07T11:32:23;9.40;;;8.40;;
37777;SDS011;23615;51.506;7.678;2023-05-07T11:34:56;9.05;;;8.25;;
37777;SDS011;23615;51.506;7.678;2023-05-07T11:37:23;8.48;;;7.68;;
37777;SDS011;23615;51.506;7.678;2023-05-07T11:39:49;6.82;;;6.22;;
37777;SDS011;23615;51.506;7.678;2023-05-07T11:42:29;7.57;;;6.85;;
37777;SDS011;23615;51.506;7.678;2023-05-07T11:44:58;8.27;;;7.43;;
37777;SDS011;23615;51.506;7.678;2023-05-07T11:47:24;9.03;;;8.13;;
37777;SDS011;23615;51.506;7.678;2023-05-07T11:49:51;8.20;;;7.40;;
37777;SDS011;23615;51.506;7.678;2023-05-07T11:52:17;8.68;;;7.80;;
37777;SDS011;23615;51.506;7.678;2023-05-07T11:54:56;6.75;;;6.15;;
37777;SDS011;23615;51.506;7.678;2023-05-07T11:57:23;10.32;;;8.73;;
37777;SDS011;23615;51.506;7.678;2023-05-07T12:00:01;8.00;;;7.30;;
37777;SDS011;23615;51.506;7.678;2023-05-07T12:02:28;7.13;;;6.45;;
37777;SDS011;23615;51.506;7.678;2023-05-07T12:04:54;7.45;;;6.75;;
37777;SDS011;23615;51.506;7.678;2023-05-07T12:07:20;7.20;;;6.45;;
37777;SDS011;23615;51.506;7.678;2023-05-07T12:09:45;7.78;;;6.10;;
37777;SDS011;23615;51.506;7.678;2023-05-07T12:12:12;5.75;;;5.20;;
37777;SDS011;23615;51.506;7.678;2023-05-07T12:14:43;7.57;;;6.78;;
37777;SDS011;23615;51.506;7.678;2023-05-07T12:17:10;8.20;;;6.95;;
37777;SDS011;23615;51.506;7.678;2023-05-07T12:19:37;6.17;;;5.57;;
37777;SDS011;23615;51.506;7.678;2023-05-07T12:22:09;6.88;;;6.28;;
37777;SDS011;23615;51.506;7.678;2023-05-07T12:24:47;6.90;;;6.23;;
37777;SDS011;23615;51.506;7.678;2023-05-07T12:27:14;7.30;;;5.75;;
37777;SDS011;23615;51.506;7.678;2023-05-07T12:29:44;5.57;;;5.18;;
37777;SDS011;23615;51.506;7.678;2023-05-07T12:32:16;5.47;;;5.03;;
37777;SDS011;23615;51.506;7.678;2023-05-07T12:34:42;4.03;;;3.72;;
37777;SDS011;23615;51.506;7.678;2023-05-07T12:37:07;6.15;;;5.05;;
37777;SDS011;23615;51.506;7.678;2023-05-07T12:39:33;4.93;;;4.27;;
37777;SDS011;23615;51.506;7.678;2023-05-07T12:41:58;5.87;;;4.50;;
37777;SDS011;23615;51.506;7.678;2023-05-07T12:44:25;5.13;;;4.13;;
37777;SDS011;23615;51.506;7.678;2023-05-07T12:46:53;3.60;;;3.30;;
37777;SDS011;23615;51.506;7.678;2023-05-07T12:49:19;4.20;;;3.83;;
37777;SDS011;23615;51.506;7.678;2023-05-07T12:51:46;5.43;;;4.20;;
37777;SDS011;23615;51.506;7.678;2023-05-07T12:54:12;4.47;;;3.67;;
37777;SDS011;23615;51.506;7.678;2023-05-07T12:56:39;4.00;;;3.70;;
37777;SDS011;23615;51.506;7.678;2023-05-07T12:59:04;3.72;;;3.38;;
37777;SDS011;23615;51.506;7.678;2023-05-07T13:01:30;4.80;;;4.40;;
37777;SDS011;23615;51.506;7.678;2023-05-07T13:03:57;4.25;;;3.88;;
37777;SDS011;23615;51.506;7.678;2023-05-07T13:06:26;6.28;;;4.43;;
37777;SDS011;23615;51.506;7.678;2023-05-07T13:08:51;4.83;;;4.23;;
37777;SDS011;23615;51.506;7.678;2023-05-07T13:11:16;4.17;;;3.77;;
37777;SDS011;23615;51.506;7.678;2023-05-07T13:13:42;3.57;;;3.17;;
37777;SDS011;23615;51.506;7.678;2023-05-07T13:16:08;4.05;;;3.72;;
37777;SDS011;23615;51.506;7.678;2023-05-07T13:18:34;3.70;;;3.40;;
37777;SDS011;23615;51.506;7.678;2023-05-07T13:21:02;4.78;;;3.92;;
37777;SDS011;23615;51.506;7.678;2023-05-07T13:23:27;4.68;;;4.28;;
37777;SDS011;23615;51.506;7.678;2023-05-07T13:25:53;4.10;;;3.80;;
37777;SDS011;23615;51.506;7.678;2023-05-07T13:28:19;5.00;;;4.50;;
37777;SDS011;23615;51.506;7.678;2023-05-07T13:30:45;4.80;;;4.40;;
37777;SDS011;23615;51.506;7.678;2023-05-07T13:33:10;5.93;;;5.00;;
37777;SDS011;23615;51.506;7.678;2023-05-07T13:35:36;4.53;;;4.13;;
37777;SDS011;23615;51.506;7.678;2023-05-07T13:38:01;5.18;;;4.47;;
37777;SDS011;23615;51.506;7.678;2023-05-07T13:40:27;5.50;;;5.00;;
37777;SDS011;23615;51.506;7.678;2023-05-07T13:42:52;5.93;;;4.80;;
37777;SDS011;23615;51.506;7.678;2023-05-07T13:45:18;4.33;;;3.93;;
37777;SDS011;23615;51.506;7.678;2023-05-07T13:47:44;4.43;;;4.10;;
37777;SDS011;23615;51.506;7.678;2023-05-07T13:50:10;3.87;;;3.53;;
37777;SDS011;23615;51.506;7.678;2023-05-07T13:52:38;3.35;;;3.05;;
37777;SDS011;23615;51.506;7.678;2023-05-07T13:55:05;4.73;;;4.23;;
37777;SDS011;23615;51.506;7.678;2023-05-07T13:57:31;3.60;;;3.30;;
37777;SDS011;23615;51.506;7.678;2023-05-07T13:59:56;3.77;;;3.03;;
37777;SDS011;23615;51.506;7.678;2023-05-07T14:02:21;4.47;;;3.72;;
37777;SDS011;23615;51.506;7.678;2023-05-07T14:04:46;4.33;;;3.93;;
37777;SDS011;23615;51.506;7.678;2023-05-07T14:07:12;4.10;;;3.77;;
37777;SDS011;23615;51.506;7.678;2023-05-07T14:09:37;4.13;;;3.83;;
37777;SDS011;23615;51.506;7.678;2023-05-07T14:12:02;4.23;;;3.93;;
37777;SDS011;23615;51.506;7.678;2023-05-07T14:14:28;3.80;;;3.50;;
37777;SDS011;23615;51.506;7.678;2023-05-07T14:16:53;3.90;;;3.60;;
37777;SDS011;23615;51.506;7.678;2023-05-07T14:19:18;4.13;;;3.73;;
37777;SDS011;23615;51.506;7.678;2023-05-07T14:21:44;2.87;;;2.63;;
37777;SDS011;23615;51.506;7.678;2023-05-07T14:24:10;2.63;;;2.40;;
37777;SDS011;23615;51.506;7.678;2023-05-07T14:26:35;2.33;;;2.20;;
37777;SDS011;23615;51.506;7.678;2023-05-07T14:29:00;2.97;;;2.78;;
37777;SDS011;23615;51.506;7.678;2023-05-07T14:31:26;2.73;;;2.53;;
37777;SDS011;23615;51.506;7.678;2023-05-07T14:33:51;2.63;;;2.37;;
37777;SDS011;23615;51.506;7.678;2023-05-07T14:36:17;3.38;;;2.72;;
37777;SDS011;23615;51.506;7.678;2023-05-07T14:38:44;2.38;;;2.17;;
37777;SDS011;23615;51.506;7.678;2023-05-07T14:41:10;3.50;;;2.92;;
37777;SDS011;23615;51.506;7.678;2023-05-07T14:43:35;3.67;;;3.28;;
37777;SDS011;23615;51.506;7.678;2023-05-07T14:46:02;3.03;;;2.78;;
37777;SDS011;23615;51.506;7.678;2023-05-07T14:48:28;4.13;;;3.25;;
37777;SDS011;23615;51.506;7.678;2023-05-07T14:50:53;2.80;;;2.60;;
37777;SDS011;23615;51.506;7.678;2023-05-07T14:53:19;3.03;;;2.57;;
37777;SDS011;23615;51.506;7.678;2023-05-07T14:55:44;3.37;;;2.07;;
37777;SDS011;23615;51.506;7.678;2023-05-07T14:58:10;2.13;;;2.00;;
37777;SDS011;23615;51.506;7.678;2023-05-07T15:00:36;1.92;;;1.83;;